Time;durP1;ratioP1;P1;durP2;ratioP2;P2;SDS_P1;SDS_P2;PMS_P1;PMS_P2;Temp;Humidity;BMP_temperature;BMP_pressure;BME280_temperature;BME280_humidity;BME280_pressure;Samples;Min_cycle;Max_cycle;Signal;HPM_P1;HPM_P2
2023/02/21 02:15:23;;;;;;;57.72;20.80;;;;;;;-146.27;100.00;48351.78;5047126;28;20031;-70
2023/02/21 02:18:16;;;;;;;50.97;19.75;;;;;;;-146.27;100.00;48375.69;5084517;28;20123;-70
2023/02/21 02:20:47;;;;;;;46.10;20.00;;;;;;;-146.27;100.00;48361.75;5079966;28;20032;-70
2023/02/21 02:23:28;;;;;;;49.47;19.77;;;;;;;-146.27;100.00;48369.72;5089782;28;20027;-70
2023/02/21 02:26:30;;;;;;;42.67;18.38;;;;;;;-146.27;100.00;48375.69;5090990;28;20476;-70
2023/02/21 02:29:18;;;;;;;43.78;18.80;;;;;;;-146.27;100.00;48365.72;5089495;28;20122;-70
2023/02/21 02:32:05;;;;;;;38.65;19.75;;;;;;;-146.27;100.00;48363.75;5090946;28;20099;-69
2023/02/21 02:35:08;;;;;;;38.60;19.15;;;;;;;-146.27;100.00;48353.78;5077595;28;20036;-71
2023/02/21 02:37:46;;;;;;;40.65;18.23;;;;;;;-146.27;100.00;48357.75;5075687;28;20488;-70
2023/02/21 02:40:34;;;;;;;52.85;20.33;;;;;;;-146.27;100.00;48387.63;5091086;28;20488;-72
2023/02/21 02:43:11;;;;;;;40.78;18.10;;;;;;;-146.27;100.00;48351.78;5089474;28;20039;-71
2023/02/21 02:45:46;;;;;;;40.97;19.77;;;;;;;-146.27;100.00;48389.63;5077551;28;20055;-72
2023/02/21 02:48:24;;;;;;;46.35;19.13;;;;;;;-146.27;100.00;48375.69;5078056;28;20032;-71
2023/02/21 02:50:51;;;;;;;48.75;21.38;;;;;;;-146.27;100.00;48363.75;5085998;28;20031;-70
2023/02/21 02:53:21;;;;;;;39.55;19.67;;;;;;;-146.27;100.00;48371.69;5089133;28;20498;-70
2023/02/21 02:55:56;;;;;;;38.45;20.80;;;;;;;-146.27;100.00;48343.81;5091948;28;20154;-70
2023/02/21 02:58:25;;;;;;;48.05;19.75;;;;;;;-146.27;100.00;48379.66;5088228;28;20040;-71
2023/02/21 03:01:09;;;;;;;47.63;21.10;;;;;;;-146.27;100.00;48347.81;5086217;28;20031;-70
2023/02/21 03:03:37;;;;;;;47.38;22.00;;;;;;;-146.27;100.00;48379.66;5093557;28;20460;-70
2023/02/21 03:06:22;;;;;;;50.22;22.55;;;;;;;-146.27;100.00;48357.75;5095712;28;20047;-70
2023/02/21 03:09:18;;;;;;;56.65;22.38;;;;;;;-146.27;100.00;48359.75;5086417;28;20028;-70
2023/02/21 03:12:12;;;;;;;55.15;22.90;;;;;;;-146.27;100.00;48389.63;5081582;28;20130;-69
2023/02/21 03:14:58;;;;;;;51.33;22.58;;;;;;;-146.27;100.00;48411.53;5092596;28;20468;-71
2023/02/21 03:17:27;;;;;;;57.60;24.35;;;;;;;-146.27;100.00;48365.72;5094364;28;20067;-71
2023/02/21 03:19:55;;;;;;;57.92;23.15;;;;;;;-146.27;100.00;48389.63;5093578;28;20028;-71
2023/02/21 03:22:25;;;;;;;49.42;21.48;;;;;;;-146.27;100.00;48379.66;5090981;28;20456;-70
2023/02/21 03:24:51;;;;;;;53.40;25.25;;;;;;;-146.27;100.00;48399.59;5093682;28;20016;-70
2023/02/21 03:27:20;;;;;;;55.22;22.25;;;;;;;-146.27;100.00;48395.59;5094811;28;20032;-71
2023/02/21 03:29:46;;;;;;;51.42;24.77;;;;;;;-146.27;100.00;48377.69;5088161;28;20032;-70
2023/02/21 03:34:50;;;;;;;59.65;24.85;;;;;;;-146.27;100.00;48383.66;5093716;28;20114;-71
2023/02/21 03:37:39;;;;;;;58.08;24.58;;;;;;;-146.27;100.00;48359.75;5092734;28;20102;-71
2023/02/21 03:40:29;;;;;;;51.90;23.63;;;;;;;-146.27;100.00;48387.63;5094694;28;20075;-70
2023/02/21 03:42:57;;;;;;;58.78;22.40;;;;;;;-146.27;100.00;48355.78;5089770;28;20342;-71
2023/02/21 03:45:23;;;;;;;46.75;22.60;;;;;;;-146.27;100.00;48375.69;5091354;28;20049;-72
2023/02/21 03:47:48;;;;;;;51.35;23.15;;;;;;;-146.27;100.00;48391.63;5089460;28;20036;-70
2023/02/21 03:50:13;;;;;;;59.20;24.30;;;;;;;-146.27;100.00;48371.69;5089636;28;20092;-71
2023/02/21 03:52:39;;;;;;;56.95;24.27;;;;;;;-146.27;100.00;48377.69;5092062;28;20035;-70
2023/02/21 03:55:06;;;;;;;59.03;23.35;;;;;;;-146.27;100.00;48363.75;5093632;28;20022;-69
2023/02/21 03:57:31;;;;;;;53.42;23.02;;;;;;;-146.27;100.00;48347.81;5093565;28;20080;-69
2023/02/21 03:59:57;;;;;;;51.17;23.38;;;;;;;-146.27;100.00;48363.75;5085648;28;20171;-69
2023/02/21 04:02:22;;;;;;;54.10;23.13;;;;;;;-146.27;100.00;48385.66;5078628;28;20032;-71
2023/02/21 04:04:47;;;;;;;47.60;22.40;;;;;;;-146.27;100.00;48379.66;5092961;28;20020;-71
2023/02/21 04:07:17;;;;;;;48.45;23.65;;;;;;;-146.27;100.00;48359.75;5093413;28;20054;-70
2023/02/21 04:09:42;;;;;;;51.53;23.27;;;;;;;-146.27;100.00;48377.69;5082037;28;20476;-71
2023/02/21 04:12:08;;;;;;;50.22;22.38;;;;;;;-146.27;100.00;48331.88;5091544;28;20026;-71
2023/02/21 04:14:33;;;;;;;50.05;22.88;;;;;;;-146.27;100.00;48363.75;5088956;28;20028;-69
2023/02/21 04:16:59;;;;;;;51.20;21.95;;;;;;;-146.27;100.00;48385.66;5093643;28;20467;-71
2023/02/21 04:19:24;;;;;;;48.95;22.20;;;;;;;-146.27;100.00;48357.75;5090318;28;20028;-71
2023/02/21 04:21:49;;;;;;;49.17;23.40;;;;;;;-146.27;100.00;48359.75;5092382;28;20032;-70
2023/02/21 04:24:15;;;;;;;49.47;22.58;;;;;;;-146.27;100.00;48383.66;5092632;28;20036;-71
2023/02/21 04:26:40;;;;;;;46.20;22.38;;;;;;;-146.27;100.00;48379.66;5084113;28;20055;-69
2023/02/21 04:29:06;;;;;;;49.60;23.48;;;;;;;-146.27;100.00;48347.81;5076876;28;20024;-69
2023/02/21 04:31:31;;;;;;;52.40;23.60;;;;;;;-146.27;100.00;48339.84;5094246;28;20382;-70
2023/02/21 04:33:58;;;;;;;56.97;23.38;;;;;;;-146.27;100.00;48391.63;5086927;28;20059;-70
2023/02/21 04:36:23;;;;;;;61.10;24.33;;;;;;;-146.27;100.00;48363.75;5088104;28;20064;-70
2023/02/21 04:38:49;;;;;;;58.13;24.80;;;;;;;-146.27;100.00;48353.78;5091292;28;20111;-71
2023/02/21 04:41:15;;;;;;;52.45;24.23;;;;;;;-146.27;100.00;48353.78;5088720;28;20031;-71
2023/02/21 04:43:42;;;;;;;47.88;22.98;;;;;;;-146.27;100.00;48353.78;5092617;28;20051;-71
2023/02/21 04:46:08;;;;;;;55.42;25.90;;;;;;;-146.27;100.00;48359.75;5092881;28;20073;-71
2023/02/21 04:48:33;;;;;;;51.20;24.17;;;;;;;-146.27;100.00;48363.75;5090847;28;20028;-71
2023/02/21 04:50:58;;;;;;;59.53;25.90;;;;;;;-146.27;100.00;48383.66;5091332;28;20027;-71
2023/02/21 04:53:24;;;;;;;55.72;26.08;;;;;;;-146.27;100.00;48375.69;5086381;28;20036;-71
2023/02/21 04:55:49;;;;;;;57.65;26.35;;;;;;;-146.27;100.00;48389.63;5078552;28;20049;-70
2023/02/21 04:58:14;;;;;;;58.38;26.60;;;;;;;-146.27;100.00;48367.72;5091955;28;20023;-72
2023/02/21 05:00:40;;;;;;;66.90;27.88;;;;;;;-146.27;100.00;48379.66;5080010;28;20024;-70
2023/02/21 05:03:05;;;;;;;57.13;26.63;;;;;;;-146.27;100.00;48383.66;5088435;28;20111;-71
2023/02/21 05:05:30;;;;;;;59.05;25.95;;;;;;;-146.27;100.00;48343.81;5090836;28;20052;-70
2023/02/21 05:07:56;;;;;;;69.50;26.13;;;;;;;-146.27;100.00;48341.81;5092556;28;20020;-70
2023/02/21 05:10:21;;;;;;;58.75;26.38;;;;;;;-146.27;100.00;48357.75;5090439;28;20119;-70
2023/02/21 05:12:46;;;;;;;56.97;26.58;;;;;;;-146.27;100.00;48357.75;5090746;28;20032;-71
2023/02/21 05:15:12;;;;;;;57.83;26.95;;;;;;;-146.27;100.00;48409.53;5089895;28;20020;-70
2023/02/21 05:17:38;;;;;;;51.20;25.45;;;;;;;-146.27;100.00;48323.91;5090338;28;20028;-69
2023/02/21 05:20:10;;;;;;;51.83;26.63;;;;;;;-146.27;100.00;48345.81;5087228;28;20073;-71
2023/02/21 05:22:40;;;;;;;61.20;25.67;;;;;;;-146.27;100.00;48377.69;5088859;28;20032;-70
2023/02/21 05:25:26;;;;;;;53.78;25.42;;;;;;;-146.27;100.00;48365.72;5087519;28;20383;-70
2023/02/21 05:27:52;;;;;;;51.47;24.80;;;;;;;-146.27;100.00;48359.75;5088099;28;20399;-70
2023/02/21 05:30:20;;;;;;;59.88;25.30;;;;;;;-146.27;100.00;48397.59;5082191;28;20043;-70
2023/02/21 05:32:46;;;;;;;51.15;23.23;;;;;;;-146.27;100.00;48359.75;5084387;28;20384;-69
2023/02/21 05:35:13;;;;;;;51.22;25.77;;;;;;;-146.27;100.00;48375.69;5090668;28;20024;-71
2023/02/21 05:37:39;;;;;;;53.33;25.15;;;;;;;-146.27;100.00;48335.84;5092974;28;20047;-71
2023/02/21 05:40:05;;;;;;;51.45;26.23;;;;;;;-146.27;100.00;48391.63;5092020;28;20373;-69
2023/02/21 05:42:31;;;;;;;57.25;24.27;;;;;;;-146.27;100.00;48359.75;5091942;28;20365;-70
2023/02/21 05:44:56;;;;;;;52.88;23.73;;;;;;;-146.27;100.00;48361.75;5080501;28;20023;-71
2023/02/21 05:47:22;;;;;;;52.58;23.35;;;;;;;-146.27;100.00;48371.69;5090915;28;20036;-71
2023/02/21 05:49:47;;;;;;;56.67;24.02;;;;;;;-146.27;100.00;48335.84;5089525;28;20032;-70
2023/02/21 05:52:15;;;;;;;47.47;24.65;;;;;;;-146.27;100.00;48375.69;5089124;28;20058;-70
2023/02/21 05:54:40;;;;;;;47.83;23.70;;;;;;;-146.27;100.00;48367.72;5080183;28;20020;-70
2023/02/21 05:57:06;;;;;;;47.92;23.52;;;;;;;-146.27;100.00;48355.78;5089423;28;20059;-71
2023/02/21 05:59:31;;;;;;;55.63;25.55;;;;;;;-146.27;100.00;48365.72;5085233;28;20036;-70
2023/02/21 06:01:57;;;;;;;43.80;22.50;;;;;;;-146.27;100.00;48393.63;5088247;28;20026;-69
2023/02/21 06:04:23;;;;;;;47.17;23.38;;;;;;;-146.27;100.00;48351.78;5091008;28;20417;-70
2023/02/21 06:06:49;;;;;;;42.88;23.27;;;;;;;-146.27;100.00;48389.63;5087967;28;20059;-71
2023/02/21 06:09:14;;;;;;;48.05;24.67;;;;;;;-146.27;100.00;48379.66;5085962;28;20031;-70
2023/02/21 06:11:40;;;;;;;46.97;21.95;;;;;;;-146.27;100.00;48363.75;5090575;28;20023;-70
2023/02/21 06:14:12;;;;;;;52.25;25.40;;;;;;;-146.27;100.00;48399.59;5087505;28;20107;-70
2023/02/21 06:16:38;;;;;;;44.97;22.83;;;;;;;-146.27;100.00;48377.69;5088373;28;20024;-70
2023/02/21 06:19:06;;;;;;;51.97;24.08;;;;;;;-146.27;100.00;48321.91;5088661;28;20031;-69
2023/02/21 06:21:31;;;;;;;44.20;23.13;;;;;;;-146.27;100.00;48371.69;5089081;28;20456;-70
2023/02/21 06:23:57;;;;;;;52.88;24.65;;;;;;;-146.27;100.00;48321.91;5091111;28;20051;-72
2023/02/21 06:26:23;;;;;;;52.55;24.08;;;;;;;-146.27;100.00;48359.75;5091615;28;20510;-72
2023/02/21 06:28:49;;;;;;;51.38;22.88;;;;;;;-146.27;100.00;48371.69;5089043;28;20360;-72
2023/02/21 06:31:15;;;;;;;47.97;24.35;;;;;;;-146.27;100.00;48385.66;5082519;28;20516;-71
2023/02/21 06:33:41;;;;;;;42.53;23.05;;;;;;;-146.27;100.00;48341.81;5085762;28;20376;-70
2023/02/21 06:36:13;;;;;;;51.72;24.45;;;;;;;-146.27;100.00;48371.69;5086907;28;20028;-70
2023/02/21 06:38:39;;;;;;;47.03;22.30;;;;;;;-146.27;100.00;48355.78;5080113;28;20024;-70
2023/02/21 06:41:06;;;;;;;49.50;25.15;;;;;;;-146.27;100.00;48357.75;5088817;28;20445;-71
2023/02/21 06:43:33;;;;;;;57.17;24.42;;;;;;;-146.27;100.00;48359.75;5088758;28;20074;-70
2023/02/21 06:45:58;;;;;;;54.10;25.38;;;;;;;-146.27;100.00;48359.75;5086239;28;20024;-69
2023/02/21 06:48:23;;;;;;;46.80;23.88;;;;;;;-146.27;100.00;48367.72;5086961;28;20042;-71
2023/02/21 06:50:49;;;;;;;64.70;23.95;;;;;;;-146.27;100.00;48347.81;5087274;28;20406;-69
2023/02/21 06:53:14;;;;;;;49.50;24.95;;;;;;;-146.27;100.00;48363.75;5089172;28;20108;-71
2023/02/21 06:55:40;;;;;;;56.05;26.75;;;;;;;-146.27;100.00;48363.75;5083123;28;20035;-71
2023/02/21 06:58:05;;;;;;;50.80;23.45;;;;;;;-146.27;100.00;48371.69;5094229;28;20499;-70
2023/02/21 07:00:31;;;;;;;49.42;23.92;;;;;;;-146.27;100.00;48375.69;5086195;28;20024;-68
2023/02/21 07:02:56;;;;;;;43.25;21.85;;;;;;;-146.27;100.00;48353.78;5090703;28;20032;-71
2023/02/21 07:05:22;;;;;;;50.22;24.30;;;;;;;-146.27;100.00;48407.56;5098121;28;20036;-70
2023/02/21 07:07:47;;;;;;;45.95;23.42;;;;;;;-146.27;100.00;48351.78;5081657;28;20028;-72
2023/02/21 07:10:12;;;;;;;50.58;24.67;;;;;;;-146.27;100.00;48367.72;5083204;28;20043;-70
2023/02/21 07:12:38;;;;;;;49.75;24.13;;;;;;;-146.27;100.00;48371.69;5081172;28;20138;-69
2023/02/21 07:15:05;;;;;;;49.95;23.48;;;;;;;-146.27;100.00;48401.56;5088661;28;20376;-70
2023/02/21 07:17:31;;;;;;;50.42;24.70;;;;;;;-146.27;100.00;48335.84;5090820;28;20030;-71
2023/02/21 07:19:56;;;;;;;52.25;22.48;;;;;;;-146.27;100.00;48331.88;5082899;28;20024;-71
2023/02/21 07:22:27;;;;;;;49.15;22.98;;;;;;;-146.27;100.00;48337.84;5082436;28;20101;-71
2023/02/21 07:24:54;;;;;;;47.60;23.83;;;;;;;-146.27;100.00;48361.75;5084328;28;20512;-71
2023/02/21 07:27:20;;;;;;;38.90;22.15;;;;;;;-146.27;100.00;48351.78;5084151;28;20103;-70
2023/02/21 07:29:47;;;;;;;45.42;24.02;;;;;;;-146.27;100.00;48333.88;5082829;28;20165;-70
2023/02/21 07:32:13;;;;;;;44.17;22.38;;;;;;;-146.27;100.00;48353.78;5081939;28;20036;-70
2023/02/21 07:34:38;;;;;;;43.92;22.10;;;;;;;-146.27;100.00;48387.63;5088741;28;20039;-70
2023/02/21 07:37:04;;;;;;;44.33;23.38;;;;;;;-146.27;100.00;48367.72;5087327;28;20028;-70
2023/02/21 07:39:29;;;;;;;45.00;22.67;;;;;;;-146.27;100.00;48343.81;5085748;28;20031;-69
2023/02/21 07:41:54;;;;;;;46.25;23.42;;;;;;;-146.27;100.00;48351.78;5079070;28;20025;-70
2023/02/21 07:44:20;;;;;;;42.88;22.23;;;;;;;-146.27;100.00;48367.72;5085755;28;20099;-71
2023/02/21 07:46:45;;;;;;;45.65;24.15;;;;;;;-146.27;100.00;48385.66;5093140;28;20117;-71
2023/02/21 07:49:11;;;;;;;46.35;22.88;;;;;;;-146.27;100.00;48327.88;5095354;28;20058;-70
2023/02/21 07:51:36;;;;;;;47.72;22.55;;;;;;;-146.27;100.00;48375.69;5091345;28;20031;-71
2023/02/21 07:54:01;;;;;;;44.80;22.80;;;;;;;-146.27;100.00;48367.72;5090978;28;20039;-70
2023/02/21 07:56:27;;;;;;;40.25;22.63;;;;;;;-146.27;100.00;48359.75;5084335;28;20479;-69
2023/02/21 07:58:52;;;;;;;40.42;22.17;;;;;;;-146.27;100.00;48389.63;5079357;28;20028;-71
2023/02/21 08:01:22;;;;;;;45.05;22.55;;;;;;;-146.27;100.00;48337.84;5087354;28;20533;-70
2023/02/21 08:03:47;;;;;;;41.75;22.40;;;;;;;-146.27;100.00;48347.81;5090680;28;20476;-70
2023/02/21 08:06:13;;;;;;;43.38;23.02;;;;;;;-146.27;100.00;48379.66;5090513;28;20047;-70
2023/02/21 08:08:38;;;;;;;43.22;22.20;;;;;;;-146.27;100.00;48335.84;5092758;28;20031;-71
2023/02/21 08:11:04;;;;;;;41.25;20.75;;;;;;;-146.27;100.00;48339.84;5094735;28;20028;-70
2023/02/21 08:13:29;;;;;;;42.95;22.33;;;;;;;-146.27;100.00;48351.78;5094763;28;20016;-70
2023/02/21 08:15:54;;;;;;;38.38;21.75;;;;;;;-146.27;100.00;48375.69;5093387;28;20147;-68
2023/02/21 08:18:23;;;;;;;42.33;22.63;;;;;;;-146.27;100.00;48387.63;5094757;28;20020;-69
2023/02/21 08:20:53;;;;;;;40.80;22.13;;;;;;;-146.27;100.00;48351.78;5091466;28;20024;-70
2023/02/21 08:23:19;;;;;;;37.00;20.23;;;;;;;-146.27;100.00;48363.75;5095018;28;20472;-69
2023/02/21 08:25:45;;;;;;;43.08;22.13;;;;;;;-146.27;100.00;48341.81;5090249;28;20030;-70
2023/02/21 08:28:11;;;;;;;41.05;21.67;;;;;;;-146.27;100.00;48367.72;5074601;28;20123;-70
2023/02/21 08:30:37;;;;;;;47.22;24.10;;;;;;;-146.27;100.00;48381.66;5084274;28;20043;-71
2023/02/21 08:33:03;;;;;;;41.53;21.65;;;;;;;-146.27;100.00;48359.75;5092299;28;20145;-71
2023/02/21 08:35:28;;;;;;;42.78;22.42;;;;;;;-146.27;100.00;48367.72;5094937;28;20028;-69
2023/02/21 08:38:01;;;;;;;41.88;22.70;;;;;;;-146.27;100.00;48347.81;5092894;28;20024;-70
2023/02/21 08:40:29;;;;;;;46.70;23.75;;;;;;;-146.27;100.00;48349.78;5080247;28;20088;-69
2023/02/21 08:42:54;;;;;;;42.65;22.33;;;;;;;-146.27;100.00;48385.66;5094332;28;20039;-70
2023/02/21 08:45:21;;;;;;;43.42;22.60;;;;;;;-146.27;100.00;48361.75;5094039;28;20028;-70
2023/02/21 08:47:47;;;;;;;38.28;22.70;;;;;;;-146.27;100.00;48359.75;5092402;28;20060;-70
2023/02/21 08:50:13;;;;;;;40.83;20.50;;;;;;;-146.27;100.00;48347.81;5094246;28;20505;-71
2023/02/21 08:52:38;;;;;;;44.90;21.90;;;;;;;-146.27;100.00;48365.72;5093495;28;20020;-70
2023/02/21 08:55:05;;;;;;;37.50;22.10;;;;;;;-146.27;100.00;48361.75;5093780;28;20486;-69
2023/02/21 08:57:33;;;;;;;39.67;21.42;;;;;;;-146.27;100.00;48347.81;5091682;28;20069;-70
2023/02/21 08:59:59;;;;;;;38.55;21.60;;;;;;;-146.27;100.00;48327.88;5092480;28;20027;-71
2023/02/21 09:02:25;;;;;;;43.15;21.27;;;;;;;-146.27;100.00;48347.81;5087734;28;20449;-71
2023/02/21 09:04:51;;;;;;;41.95;22.55;;;;;;;-146.27;100.00;48355.78;5094078;28;20108;-71
2023/02/21 09:07:20;;;;;;;37.30;21.45;;;;;;;-146.27;100.00;48359.75;5091399;28;20072;-70
2023/02/21 09:09:45;;;;;;;39.92;22.50;;;;;;;-146.27;100.00;48383.66;5088993;28;20032;-70
2023/02/21 09:12:11;;;;;;;37.60;20.70;;;;;;;-146.27;100.00;48357.75;5092029;28;20024;-70
2023/02/21 09:14:38;;;;;;;36.05;21.00;;;;;;;-146.27;100.00;48363.75;5080248;28;20107;-71
2023/02/21 09:17:05;;;;;;;38.10;22.02;;;;;;;-146.27;100.00;48367.72;5086222;28;20372;-70
2023/02/21 09:19:31;;;;;;;35.88;21.50;;;;;;;-146.27;100.00;48379.66;5087242;28;20476;-70
2023/02/21 09:21:57;;;;;;;42.08;22.58;;;;;;;-146.27;100.00;48365.72;5088576;28;20044;-70
2023/02/21 09:24:25;;;;;;;35.05;21.40;;;;;;;-146.27;100.00;48361.75;5091841;28;20024;-72
2023/02/21 09:26:57;;;;;;;38.47;22.55;;;;;;;-146.27;100.00;48349.78;5094526;28;20077;-71
2023/02/21 09:29:26;;;;;;;37.53;22.20;;;;;;;-146.27;100.00;48379.66;5093087;28;20100;-69
2023/02/21 09:31:53;;;;;;;41.80;22.30;;;;;;;-146.27;100.00;48355.78;5103229;28;20028;-72
2023/02/21 09:34:19;;;;;;;37.70;21.75;;;;;;;-146.27;100.00;48347.81;5073128;28;20078;-70
2023/02/21 09:36:46;;;;;;;40.08;21.65;;;;;;;-146.27;100.00;48359.75;5073208;28;20047;-71
2023/02/21 09:39:11;;;;;;;42.97;22.50;;;;;;;-146.27;100.00;48335.84;5084574;28;20364;-70
2023/02/21 09:41:38;;;;;;;44.03;22.35;;;;;;;-146.27;100.00;48331.88;5096439;28;20080;-69
2023/02/21 09:44:06;;;;;;;40.50;22.00;;;;;;;-146.27;100.00;48373.69;5098239;28;20119;-69
2023/02/21 09:46:42;;;;;;;39.60;21.88;;;;;;;-146.27;100.00;48339.84;5093275;28;20047;-70
2023/02/21 09:49:30;;;;;;;40.28;23.40;;;;;;;-146.27;100.00;48359.75;5090112;28;20097;-70
2023/02/21 09:51:56;;;;;;;42.17;23.88;;;;;;;-146.27;100.00;48367.72;5091712;28;20108;-70
2023/02/21 09:54:29;;;;;;;45.67;21.75;;;;;;;-146.27;100.00;48365.72;5086058;28;20040;-70
2023/02/21 09:56:59;;;;;;;41.55;22.40;;;;;;;-146.27;100.00;48373.69;5078613;28;20106;-72
2023/02/21 09:59:25;;;;;;;41.42;22.15;;;;;;;-146.27;100.00;48359.75;5084007;28;20047;-71
2023/02/21 10:02:09;;;;;;;44.58;24.25;;;;;;;-146.27;100.00;48351.78;5094800;28;20028;-70
2023/02/21 10:04:52;;;;;;;49.78;25.15;;;;;;;-146.27;100.00;48373.69;5087561;28;20024;-70
2023/02/21 10:07:40;;;;;;;47.08;24.27;;;;;;;-146.27;100.00;48411.53;5080302;28;20518;-71
2023/02/21 10:10:22;;;;;;;47.08;24.90;;;;;;;-146.27;100.00;48361.75;5086301;28;20028;-70
2023/02/21 10:13:03;;;;;;;49.53;26.95;;;;;;;-146.27;100.00;48339.84;5082284;28;20028;-71
2023/02/21 10:15:59;;;;;;;50.72;23.95;;;;;;;-146.27;100.00;48343.81;5074730;28;20028;-69
2023/02/21 10:18:48;;;;;;;60.40;26.95;;;;;;;-146.27;100.00;48363.75;5070758;28;20276;-72
2023/02/21 10:21:22;;;;;;;49.45;25.70;;;;;;;-146.27;100.00;48337.84;5078755;28;20020;-70
2023/02/21 10:23:49;;;;;;;53.85;26.17;;;;;;;-146.27;100.00;48397.59;5074880;28;20036;-69
2023/02/21 10:26:27;;;;;;;55.22;27.70;;;;;;;-146.27;100.00;48387.63;5083378;28;20028;-71
2023/02/21 10:28:54;;;;;;;59.78;28.30;;;;;;;-146.27;100.00;48339.84;5087327;28;20055;-70
2023/02/21 10:31:30;;;;;;;60.13;28.88;;;;;;;-146.27;100.00;48367.72;5085920;28;20141;-71
2023/02/21 10:33:58;;;;;;;61.08;28.40;;;;;;;-146.27;100.00;48353.78;5073577;28;20032;-70
2023/02/21 10:36:25;;;;;;;66.10;29.15;;;;;;;-146.27;100.00;48323.91;5076354;28;20020;-70
2023/02/21 10:39:15;;;;;;;78.65;30.40;;;;;;;-146.27;100.00;48379.66;5079729;28;20028;-69
2023/02/21 10:41:41;;;;;;;64.38;29.92;;;;;;;-146.27;100.00;48347.81;5080081;28;20365;-70
2023/02/21 10:44:21;;;;;;;69.57;29.33;;;;;;;-146.27;100.00;48359.75;5072643;28;20090;-70
2023/02/21 10:47:05;;;;;;;75.57;30.23;;;;;;;-146.27;100.00;48381.66;5086188;28;20034;-70
2023/02/21 10:49:37;;;;;;;62.03;27.80;;;;;;;-146.27;100.00;48347.81;5088020;28;20028;-70
2023/02/21 10:52:11;;;;;;;79.72;30.20;;;;;;;-146.27;100.00;48377.69;5075451;28;20024;-71
2023/02/21 10:54:36;;;;;;;77.00;28.17;;;;;;;-146.27;100.00;48359.75;5086403;28;20361;-70
2023/02/21 10:57:06;;;;;;;70.32;26.48;;;;;;;-146.27;100.00;48363.75;5092109;28;20106;-70
2023/02/21 10:59:34;;;;;;;58.28;23.67;;;;;;;-146.27;100.00;48363.75;5087627;28;20373;-70
2023/02/21 11:02:02;;;;;;;63.60;24.60;;;;;;;-146.27;100.00;48377.69;5081370;28;20115;-71
2023/02/21 11:04:33;;;;;;;60.90;23.80;;;;;;;-146.27;100.00;48351.78;5076803;28;20086;-70
2023/02/21 11:07:06;;;;;;;61.90;24.13;;;;;;;-146.27;100.00;48375.69;5086993;28;20111;-71
2023/02/21 11:09:42;;;;;;;63.90;24.53;;;;;;;-146.27;100.00;48347.81;5079071;28;20441;-70
2023/02/21 11:12:25;;;;;;;64.97;24.10;;;;;;;-146.27;100.00;48319.91;5074039;28;20290;-71
2023/02/21 11:14:51;;;;;;;52.53;21.60;;;;;;;-146.27;100.00;48351.78;5078015;28;20036;-72
2023/02/21 11:17:33;;;;;;;56.50;21.10;;;;;;;-146.27;100.00;48363.75;5093673;28;20024;-70
2023/02/21 11:20:07;;;;;;;53.17;20.75;;;;;;;-146.27;100.00;48373.69;5086035;28;20490;-71
2023/02/21 11:22:47;;;;;;;46.90;19.50;;;;;;;-146.27;100.00;48359.75;5091095;28;20035;-71
2023/02/21 11:25:30;;;;;;;50.72;19.63;;;;;;;-146.27;100.00;48367.72;5078870;28;20034;-70
2023/02/21 11:28:08;;;;;;;42.53;19.45;;;;;;;-146.27;100.00;48351.78;5075738;28;20060;-70
2023/02/21 11:30:42;;;;;;;47.28;18.90;;;;;;;-146.27;100.00;48371.69;5086683;28;21360;-71
2023/02/21 11:33:07;;;;;;;;;;;;;;;-146.27;100.00;48371.69;5063556;28;20027;-72
2023/02/21 11:35:38;;;;;;;41.60;17.65;;;;;;;-146.27;100.00;48359.75;5096083;28;19916;-71
2023/02/21 11:38:28;;;;;;;43.95;18.00;;;;;;;-146.27;100.00;48347.81;5089547;28;20039;-69
2023/02/21 11:40:56;;;;;;;38.47;17.63;;;;;;;-146.27;100.00;48387.63;5079989;28;20527;-72
2023/02/21 11:43:29;;;;;;;35.63;17.83;;;;;;;-146.27;100.00;48371.69;5069697;28;20029;-71
2023/02/21 11:46:03;;;;;;;38.50;17.02;;;;;;;-146.27;100.00;48353.78;5090456;28;20374;-70
2023/02/21 11:48:35;;;;;;;33.05;16.17;;;;;;;-146.27;100.00;48367.72;5085900;28;20063;-70
2023/02/21 11:51:06;;;;;;;36.10;16.23;;;;;;;-146.27;100.00;48375.69;5077625;28;20024;-71
2023/02/21 11:53:39;;;;;;;30.88;14.40;;;;;;;-146.27;100.00;48371.69;5086331;28;20032;-69
2023/02/21 11:56:07;;;;;;;31.80;14.65;;;;;;;-146.27;100.00;48375.69;5086295;28;20024;-71
2023/02/21 11:58:48;;;;;;;29.02;13.73;;;;;;;-146.27;100.00;48375.69;5089100;28;20353;-72
2023/02/21 12:01:36;;;;;;;27.10;13.45;;;;;;;-146.27;100.00;48383.66;5091958;28;20038;-70
2023/02/21 12:04:10;;;;;;;26.70;11.52;;;;;;;-146.27;100.00;48357.75;5080749;28;20077;-70
2023/02/21 12:06:38;;;;;;;25.80;13.05;;;;;;;-146.27;100.00;48359.75;5081846;28;20048;-70
2023/02/21 12:09:09;;;;;;;21.30;10.98;;;;;;;-146.27;100.00;48331.88;5092830;28;20027;-70
2023/02/21 12:11:43;;;;;;;23.80;11.55;;;;;;;-146.27;100.00;48375.69;5090293;28;20024;-71
2023/02/21 12:14:34;;;;;;;30.38;11.93;;;;;;;-146.27;100.00;48353.78;5077288;28;20024;-71
2023/02/21 12:17:21;;;;;;;24.15;11.75;;;;;;;-146.27;100.00;48361.75;5085318;28;20454;-69
2023/02/21 12:20:28;;;;;;;28.98;12.90;;;;;;;-146.27;100.00;48385.66;5078384;28;20028;-71
2023/02/21 12:23:10;;;;;;;26.75;12.02;;;;;;;-146.27;100.00;48389.63;5068200;28;20332;-71
2023/02/21 12:26:01;;;;;;;24.58;12.40;;;;;;;-146.27;100.00;48359.75;5088291;28;20293;-71
2023/02/21 12:28:45;;;;;;;22.20;11.57;;;;;;;-146.27;100.00;48349.78;5081193;28;20480;-71
2023/02/21 12:31:23;;;;;;;22.00;12.15;;;;;;;-146.27;100.00;48399.59;5085616;28;20073;-71
2023/02/21 12:34:00;;;;;;;22.40;11.65;;;;;;;-146.27;100.00;48409.53;5080548;28;20492;-71
2023/02/21 12:36:47;;;;;;;23.65;11.35;;;;;;;-146.27;100.00;48337.84;5078390;28;20640;-71
2023/02/21 12:39:50;;;;;;;27.70;12.20;;;;;;;-146.27;100.00;48353.78;5081184;28;20063;-70
2023/02/21 12:42:34;;;;;;;22.73;11.93;;;;;;;-146.27;100.00;48357.75;5081197;28;20048;-71
2023/02/21 12:45:16;;;;;;;19.70;10.65;;;;;;;-146.27;100.00;48347.81;5089922;28;20024;-71
2023/02/21 12:48:08;;;;;;;19.58;10.15;;;;;;;-146.27;100.00;48367.72;5090574;28;20051;-71
2023/02/21 12:50:40;;;;;;;23.05;11.18;;;;;;;-146.27;100.00;48349.78;5086230;28;20401;-70
2023/02/21 12:53:14;;;;;;;24.55;11.63;;;;;;;-146.27;100.00;48411.53;5076990;28;20024;-71
2023/02/21 12:56:16;;;;;;;28.52;13.45;;;;;;;-146.27;100.00;48367.72;5075637;28;20177;-71
2023/02/21 12:59:24;;;;;;;26.50;12.27;;;;;;;-146.27;100.00;48325.91;5052519;28;20038;-70
2023/02/21 13:02:13;;;;;;;21.55;10.38;;;;;;;-146.27;100.00;48353.78;5041432;28;20037;-71
2023/02/21 13:04:48;;;;;;;28.75;12.18;;;;;;;-146.27;100.00;48353.78;5035089;28;20064;-70
2023/02/21 13:07:24;;;;;;;25.77;11.25;;;;;;;-146.27;100.00;48353.78;5074802;28;20058;-71
2023/02/21 13:10:12;;;;;;;29.00;11.90;;;;;;;-146.27;100.00;48389.63;5093998;28;20027;-70
2023/02/21 13:13:14;;;;;;;26.13;11.00;;;;;;;-146.27;100.00;48375.69;5103523;28;20047;-71
2023/02/21 13:15:42;;;;;;;24.65;11.38;;;;;;;-146.27;100.00;48401.56;5071774;28;20039;-69
2023/02/21 13:18:17;;;;;;;26.05;10.93;;;;;;;-146.27;100.00;48347.81;5093201;28;20353;-69
2023/02/21 13:20:51;;;;;;;25.13;11.18;;;;;;;-146.27;100.00;48329.88;5091441;28;20027;-69
2023/02/21 13:26:29;;;;;;;25.67;10.80;;;;;;;-146.27;100.00;48395.59;5094000;28;20031;-69
2023/02/21 13:28:56;;;;;;;19.98;10.52;;;;;;;-146.27;100.00;48385.66;5102653;28;20106;-71
2023/02/21 13:31:25;;;;;;;21.27;10.43;;;;;;;-146.27;100.00;48383.66;5079736;28;20020;-69
2023/02/21 13:33:55;;;;;;;22.70;11.07;;;;;;;-146.27;100.00;48369.72;5089048;28;20048;-69